sensor_id;sensor_type;location;lat;lon;timestamp;temperature;humidity
37002;DHT22;22913;51.910;8.374;2022-09-29T00:00:27;8.90;99.90
37002;DHT22;22913;51.910;8.374;2022-09-29T00:03:13;8.80;99.90
37002;DHT22;22913;51.910;8.374;2022-09-29T00:05:59;8.80;99.90
37002;DHT22;22913;51.910;8.374;2022-09-29T00:08:45;8.80;99.90
37002;DHT22;22913;51.910;8.374;2022-09-29T00:11:30;8.80;99.90
37002;DHT22;22913;51.910;8.374;2022-09-29T00:14:16;8.70;99.90
37002;DHT22;22913;51.910;8.374;2022-09-29T00:17:02;8.70;99.90
37002;DHT22;22913;51.910;8.374;2022-09-29T00:19:49;8.70;99.90
37002;DHT22;22913;51.910;8.374;2022-09-29T00:22:35;8.60;99.90
37002;DHT22;22913;51.910;8.374;2022-09-29T00:25:21;8.60;99.90
37002;DHT22;22913;51.910;8.374;2022-09-29T00:28:06;8.60;99.90
37002;DHT22;22913;51.910;8.374;2022-09-29T00:30:52;8.60;99.90
37002;DHT22;22913;51.910;8.374;2022-09-29T00:33:38;8.50;99.90
37002;DHT22;22913;51.910;8.374;2022-09-29T00:36:26;8.50;99.90
37002;DHT22;22913;51.910;8.374;2022-09-29T00:39:13;8.50;99.90
37002;DHT22;22913;51.910;8.374;2022-09-29T00:41:58;8.50;99.90
37002;DHT22;22913;51.910;8.374;2022-09-29T00:45:19;8.40;99.90
37002;DHT22;22913;51.910;8.374;2022-09-29T00:48:07;8.40;99.90
37002;DHT22;22913;51.910;8.374;2022-09-29T00:50:57;8.40;99.90
37002;DHT22;22913;51.910;8.374;2022-09-29T00:53:45;8.30;99.90
37002;DHT22;22913;51.910;8.374;2022-09-29T00:56:34;8.20;99.90
37002;DHT22;22913;51.910;8.374;2022-09-29T00:59:25;8.20;99.90
37002;DHT22;22913;51.910;8.374;2022-09-29T01:02:13;8.10;99.90
37002;DHT22;22913;51.910;8.374;2022-09-29T01:04:59;8.10;99.90
37002;DHT22;22913;51.910;8.374;2022-09-29T01:07:47;8.00;99.90
37002;DHT22;22913;51.910;8.374;2022-09-29T01:10:34;8.00;99.90
37002;DHT22;22913;51.910;8.374;2022-09-29T01:13:20;8.00;99.90
37002;DHT22;22913;51.910;8.374;2022-09-29T01:16:06;7.90;99.90
37002;DHT22;22913;51.910;8.374;2022-09-29T01:18:52;7.90;99.90
37002;DHT22;22913;51.910;8.374;2022-09-29T01:21:47;7.90;99.90
37002;DHT22;22913;51.910;8.374;2022-09-29T01:24:54;7.80;99.90
37002;DHT22;22913;51.910;8.374;2022-09-29T01:28:14;7.80;99.90
37002;DHT22;22913;51.910;8.374;2022-09-29T01:31:15;7.80;99.90
37002;DHT22;22913;51.910;8.374;2022-09-29T01:34:06;7.70;99.90
37002;DHT22;22913;51.910;8.374;2022-09-29T01:37:03;7.70;99.90
37002;DHT22;22913;51.910;8.374;2022-09-29T01:39:56;7.60;99.90
37002;DHT22;22913;51.910;8.374;2022-09-29T01:42:51;7.60;99.90
37002;DHT22;22913;51.910;8.374;2022-09-29T01:45:41;7.50;99.90
37002;DHT22;22913;51.910;8.374;2022-09-29T01:48:33;7.50;99.90
37002;DHT22;22913;51.910;8.374;2022-09-29T01:51:24;7.50;99.90
37002;DHT22;22913;51.910;8.374;2022-09-29T01:54:13;7.50;99.90
37002;DHT22;22913;51.910;8.374;2022-09-29T01:57:05;7.50;99.90
37002;DHT22;22913;51.910;8.374;2022-09-29T01:59:56;7.40;99.90
37002;DHT22;22913;51.910;8.374;2022-09-29T02:02:46;7.40;99.90
37002;DHT22;22913;51.910;8.374;2022-09-29T02:05:37;7.30;99.90
37002;DHT22;22913;51.910;8.374;2022-09-29T02:08:27;7.20;99.90
37002;DHT22;22913;51.910;8.374;2022-09-29T02:11:16;7.20;99.90
37002;DHT22;22913;51.910;8.374;2022-09-29T02:14:05;7.10;99.90
37002;DHT22;22913;51.910;8.374;2022-09-29T02:16:58;7.10;99.90
37002;DHT22;22913;51.910;8.374;2022-09-29T02:19:46;7.10;99.90
37002;DHT22;22913;51.910;8.374;2022-09-29T02:22:33;7.00;99.90
37002;DHT22;22913;51.910;8.374;2022-09-29T02:25:20;7.10;99.90
37002;DHT22;22913;51.910;8.374;2022-09-29T02:28:06;7.10;99.90
37002;DHT22;22913;51.910;8.374;2022-09-29T02:30:52;7.10;99.90
37002;DHT22;22913;51.910;8.374;2022-09-29T02:33:38;7.00;99.90
37002;DHT22;22913;51.910;8.374;2022-09-29T02:36:31;7.00;99.90
37002;DHT22;22913;51.910;8.374;2022-09-29T02:39:27;7.00;99.90
37002;DHT22;22913;51.910;8.374;2022-09-29T02:42:23;7.00;99.90
37002;DHT22;22913;51.910;8.374;2022-09-29T02:45:26;7.00;99.90
37002;DHT22;22913;51.910;8.374;2022-09-29T02:48:30;7.00;99.90
37002;DHT22;22913;51.910;8.374;2022-09-29T02:51:24;7.00;99.90
37002;DHT22;22913;51.910;8.374;2022-09-29T02:54:22;7.00;99.90
37002;DHT22;22913;51.910;8.374;2022-09-29T02:57:16;6.90;99.90
37002;DHT22;22913;51.910;8.374;2022-09-29T03:00:06;6.90;99.90
37002;DHT22;22913;51.910;8.374;2022-09-29T03:02:53;6.80;99.90
37002;DHT22;22913;51.910;8.374;2022-09-29T03:05:38;6.80;99.90
37002;DHT22;22913;51.910;8.374;2022-09-29T03:08:24;6.80;99.90
37002;DHT22;22913;51.910;8.374;2022-09-29T03:11:11;6.70;99.90
37002;DHT22;22913;51.910;8.374;2022-09-29T03:13:57;6.60;99.90
37002;DHT22;22913;51.910;8.374;2022-09-29T03:16:42;6.50;99.90
37002;DHT22;22913;51.910;8.374;2022-09-29T03:19:28;6.50;99.90
37002;DHT22;22913;51.910;8.374;2022-09-29T03:22:14;6.50;99.90
37002;DHT22;22913;51.910;8.374;2022-09-29T03:25:00;6.50;99.90
37002;DHT22;22913;51.910;8.374;2022-09-29T03:27:47;6.50;99.90
37002;DHT22;22913;51.910;8.374;2022-09-29T03:30:33;6.50;99.90
37002;DHT22;22913;51.910;8.374;2022-09-29T03:33:18;6.50;99.90
37002;DHT22;22913;51.910;8.374;2022-09-29T03:36:05;6.50;99.90
37002;DHT22;22913;51.910;8.374;2022-09-29T03:38:51;6.50;99.90
37002;DHT22;22913;51.910;8.374;2022-09-29T03:41:37;6.40;99.90
37002;DHT22;22913;51.910;8.374;2022-09-29T03:44:23;6.40;99.90
37002;DHT22;22913;51.910;8.374;2022-09-29T03:47:08;6.40;99.90
37002;DHT22;22913;51.910;8.374;2022-09-29T03:49:53;6.30;99.90
37002;DHT22;22913;51.910;8.374;2022-09-29T03:52:39;6.40;99.90
37002;DHT22;22913;51.910;8.374;2022-09-29T03:55:24;6.30;99.90
37002;DHT22;22913;51.910;8.374;2022-09-29T03:58:09;6.30;99.90
37002;DHT22;22913;51.910;8.374;2022-09-29T04:00:55;6.30;99.90
37002;DHT22;22913;51.910;8.374;2022-09-29T04:03:41;6.30;99.90
37002;DHT22;22913;51.910;8.374;2022-09-29T04:06:26;6.30;99.90
37002;DHT22;22913;51.910;8.374;2022-09-29T04:09:11;6.30;99.90
37002;DHT22;22913;51.910;8.374;2022-09-29T04:11:57;6.30;99.90
37002;DHT22;22913;51.910;8.374;2022-09-29T04:14:42;6.30;99.90
37002;DHT22;22913;51.910;8.374;2022-09-29T04:17:29;6.30;99.90
37002;DHT22;22913;51.910;8.374;2022-09-29T04:20:14;6.30;99.90
37002;DHT22;22913;51.910;8.374;2022-09-29T04:23:00;6.30;99.90
37002;DHT22;22913;51.910;8.374;2022-09-29T04:25:46;6.30;99.90
37002;DHT22;22913;51.910;8.374;2022-09-29T04:28:32;6.30;99.90
37002;DHT22;22913;51.910;8.374;2022-09-29T04:31:18;6.30;99.90
37002;DHT22;22913;51.910;8.374;2022-09-29T04:34:05;6.30;99.90
37002;DHT22;22913;51.910;8.374;2022-09-29T04:36:50;6.30;99.90
37002;DHT22;22913;51.910;8.374;2022-09-29T04:39:36;6.30;99.90
37002;DHT22;22913;51.910;8.374;2022-09-29T04:42:21;6.30;99.90
37002;DHT22;22913;51.910;8.374;2022-09-29T04:45:07;6.20;99.90
37002;DHT22;22913;51.910;8.374;2022-09-29T04:47:53;6.20;99.90
37002;DHT22;22913;51.910;8.374;2022-09-29T04:50:41;6.10;99.90
37002;DHT22;22913;51.910;8.374;2022-09-29T04:53:26;6.10;99.90
37002;DHT22;22913;51.910;8.374;2022-09-29T04:56:12;6.10;99.90
37002;DHT22;22913;51.910;8.374;2022-09-29T04:58:58;6.10;99.90
37002;DHT22;22913;51.910;8.374;2022-09-29T05:01:43;6.00;99.90
37002;DHT22;22913;51.910;8.374;2022-09-29T05:04:28;6.00;99.90
37002;DHT22;22913;51.910;8.374;2022-09-29T05:07:15;6.10;99.90
37002;DHT22;22913;51.910;8.374;2022-09-29T05:10:00;6.00;99.90
37002;DHT22;22913;51.910;8.374;2022-09-29T05:12:46;5.90;99.90
37002;DHT22;22913;51.910;8.374;2022-09-29T05:15:32;5.90;99.90
37002;DHT22;22913;51.910;8.374;2022-09-29T05:18:17;5.90;99.90
37002;DHT22;22913;51.910;8.374;2022-09-29T05:21:03;5.90;99.90
37002;DHT22;22913;51.910;8.374;2022-09-29T05:23:50;5.90;99.90
37002;DHT22;22913;51.910;8.374;2022-09-29T05:26:35;5.80;99.90
37002;DHT22;22913;51.910;8.374;2022-09-29T05:29:20;5.80;99.90
37002;DHT22;22913;51.910;8.374;2022-09-29T05:32:06;5.80;99.90
37002;DHT22;22913;51.910;8.374;2022-09-29T05:34:51;5.80;99.90
37002;DHT22;22913;51.910;8.374;2022-09-29T05:37:36;5.80;99.90
37002;DHT22;22913;51.910;8.374;2022-09-29T05:40:23;5.80;99.90
37002;DHT22;22913;51.910;8.374;2022-09-29T05:43:08;5.80;99.90
37002;DHT22;22913;51.910;8.374;2022-09-29T05:45:58;5.80;99.90
37002;DHT22;22913;51.910;8.374;2022-09-29T05:48:44;5.80;99.90
37002;DHT22;22913;51.910;8.374;2022-09-29T05:51:29;5.80;99.90
37002;DHT22;22913;51.910;8.374;2022-09-29T05:54:14;5.80;99.90
37002;DHT22;22913;51.910;8.374;2022-09-29T05:57:01;5.80;99.90
37002;DHT22;22913;51.910;8.374;2022-09-29T05:59:46;5.80;99.90
37002;DHT22;22913;51.910;8.374;2022-09-29T06:02:32;5.80;99.90
37002;DHT22;22913;51.910;8.374;2022-09-29T06:05:18;5.80;99.90
37002;DHT22;22913;51.910;8.374;2022-09-29T06:08:04;5.90;99.90
37002;DHT22;22913;51.910;8.374;2022-09-29T06:10:49;5.90;99.90
37002;DHT22;22913;51.910;8.374;2022-09-29T06:13:38;5.90;99.90
37002;DHT22;22913;51.910;8.374;2022-09-29T06:16:25;5.90;99.90
37002;DHT22;22913;51.910;8.374;2022-09-29T06:19:11;5.90;99.90
37002;DHT22;22913;51.910;8.374;2022-09-29T06:21:57;6.00;99.90
37002;DHT22;22913;51.910;8.374;2022-09-29T06:24:43;5.90;99.90
37002;DHT22;22913;51.910;8.374;2022-09-29T06:27:29;6.00;99.90
37002;DHT22;22913;51.910;8.374;2022-09-29T06:30:16;6.00;99.90
37002;DHT22;22913;51.910;8.374;2022-09-29T06:33:02;6.10;99.90
37002;DHT22;22913;51.910;8.374;2022-09-29T06:35:48;6.10;99.90
37002;DHT22;22913;51.910;8.374;2022-09-29T06:38:51;6.20;99.90
37002;DHT22;22913;51.910;8.374;2022-09-29T06:41:36;6.30;99.90
37002;DHT22;22913;51.910;8.374;2022-09-29T06:44:23;6.30;99.90
37002;DHT22;22913;51.910;8.374;2022-09-29T06:47:10;6.40;99.90
37002;DHT22;22913;51.910;8.374;2022-09-29T06:49:56;6.50;99.90
37002;DHT22;22913;51.910;8.374;2022-09-29T06:52:42;6.50;99.90
37002;DHT22;22913;51.910;8.374;2022-09-29T06:55:29;6.60;99.90
37002;DHT22;22913;51.910;8.374;2022-09-29T06:58:14;6.60;99.90
37002;DHT22;22913;51.910;8.374;2022-09-29T07:01:00;6.70;99.90
37002;DHT22;22913;51.910;8.374;2022-09-29T07:03:47;6.80;99.90
37002;DHT22;22913;51.910;8.374;2022-09-29T07:06:33;6.90;99.90
37002;DHT22;22913;51.910;8.374;2022-09-29T07:09:19;6.90;99.90
37002;DHT22;22913;51.910;8.374;2022-09-29T07:12:08;7.00;99.90
37002;DHT22;22913;51.910;8.374;2022-09-29T07:14:54;7.10;99.90
37002;DHT22;22913;51.910;8.374;2022-09-29T07:17:40;7.10;99.90
37002;DHT22;22913;51.910;8.374;2022-09-29T07:20:28;7.10;99.90
37002;DHT22;22913;51.910;8.374;2022-09-29T07:23:20;7.20;99.90
37002;DHT22;22913;51.910;8.374;2022-09-29T07:26:07;7.30;99.90
37002;DHT22;22913;51.910;8.374;2022-09-29T07:28:53;7.40;99.90
37002;DHT22;22913;51.910;8.374;2022-09-29T07:31:38;7.40;99.90
37002;DHT22;22913;51.910;8.374;2022-09-29T07:34:25;7.50;99.90
37002;DHT22;22913;51.910;8.374;2022-09-29T07:37:12;7.60;99.90
37002;DHT22;22913;51.910;8.374;2022-09-29T07:39:58;7.70;99.90
37002;DHT22;22913;51.910;8.374;2022-09-29T07:42:47;7.80;99.90
37002;DHT22;22913;51.910;8.374;2022-09-29T07:45:33;7.90;99.90
37002;DHT22;22913;51.910;8.374;2022-09-29T07:48:18;7.90;99.90
37002;DHT22;22913;51.910;8.374;2022-09-29T07:51:05;8.00;99.90
37002;DHT22;22913;51.910;8.374;2022-09-29T07:53:52;8.10;99.90
37002;DHT22;22913;51.910;8.374;2022-09-29T07:56:39;8.20;99.90
37002;DHT22;22913;51.910;8.374;2022-09-29T07:59:25;8.30;99.90
37002;DHT22;22913;51.910;8.374;2022-09-29T08:02:11;8.30;99.90
37002;DHT22;22913;51.910;8.374;2022-09-29T08:04:57;8.40;99.90
37002;DHT22;22913;51.910;8.374;2022-09-29T08:07:42;8.50;99.90
37002;DHT22;22913;51.910;8.374;2022-09-29T08:10:30;8.50;99.90
37002;DHT22;22913;51.910;8.374;2022-09-29T08:13:16;8.60;99.90
37002;DHT22;22913;51.910;8.374;2022-09-29T08:16:03;8.70;99.90
37002;DHT22;22913;51.910;8.374;2022-09-29T08:18:49;8.80;99.90
37002;DHT22;22913;51.910;8.374;2022-09-29T08:21:35;8.90;99.90
37002;DHT22;22913;51.910;8.374;2022-09-29T08:24:21;9.00;99.90
37002;DHT22;22913;51.910;8.374;2022-09-29T08:27:11;9.20;99.90
37002;DHT22;22913;51.910;8.374;2022-09-29T08:29:58;9.30;99.90
37002;DHT22;22913;51.910;8.374;2022-09-29T08:32:50;9.30;99.90
37002;DHT22;22913;51.910;8.374;2022-09-29T08:35:35;9.40;99.90
37002;DHT22;22913;51.910;8.374;2022-09-29T08:38:21;9.50;99.90
37002;DHT22;22913;51.910;8.374;2022-09-29T08:41:19;9.60;99.90
37002;DHT22;22913;51.910;8.374;2022-09-29T08:44:13;9.70;99.90
37002;DHT22;22913;51.910;8.374;2022-09-29T08:47:05;9.80;99.90
37002;DHT22;22913;51.910;8.374;2022-09-29T08:49:54;10.00;99.90
37002;DHT22;22913;51.910;8.374;2022-09-29T08:52:42;10.10;99.90
37002;DHT22;22913;51.910;8.374;2022-09-29T08:55:34;10.10;99.90
37002;DHT22;22913;51.910;8.374;2022-09-29T08:58:23;10.20;99.90
37002;DHT22;22913;51.910;8.374;2022-09-29T09:01:20;10.40;99.90
37002;DHT22;22913;51.910;8.374;2022-09-29T09:04:43;10.40;99.90
37002;DHT22;22913;51.910;8.374;2022-09-29T09:07:37;10.60;99.90
37002;DHT22;22913;51.910;8.374;2022-09-29T09:10:33;10.70;99.90
37002;DHT22;22913;51.910;8.374;2022-09-29T09:13:36;10.80;99.90
37002;DHT22;22913;51.910;8.374;2022-09-29T09:16:33;10.80;99.90
37002;DHT22;22913;51.910;8.374;2022-09-29T09:19:44;10.90;99.90
37002;DHT22;22913;51.910;8.374;2022-09-29T09:22:41;11.00;99.90
37002;DHT22;22913;51.910;8.374;2022-09-29T09:25:34;11.10;99.90
37002;DHT22;22913;51.910;8.374;2022-09-29T09:28:23;11.30;99.90
37002;DHT22;22913;51.910;8.374;2022-09-29T09:31:15;11.40;99.90
37002;DHT22;22913;51.910;8.374;2022-09-29T09:34:09;11.50;99.90
37002;DHT22;22913;51.910;8.374;2022-09-29T09:36:59;11.60;99.90
37002;DHT22;22913;51.910;8.374;2022-09-29T09:39:52;11.70;99.90
37002;DHT22;22913;51.910;8.374;2022-09-29T09:42:44;11.80;99.90
37002;DHT22;22913;51.910;8.374;2022-09-29T09:45:34;12.10;99.90
37002;DHT22;22913;51.910;8.374;2022-09-29T09:48:27;12.10;99.90
37002;DHT22;22913;51.910;8.374;2022-09-29T09:51:29;12.20;99.90
37002;DHT22;22913;51.910;8.374;2022-09-29T09:54:24;12.40;99.90
37002;DHT22;22913;51.910;8.374;2022-09-29T10:00:34;12.80;99.90
37002;DHT22;22913;51.910;8.374;2022-09-29T10:03:21;13.00;99.90
37002;DHT22;22913;51.910;8.374;2022-09-29T10:06:07;13.40;99.90
37002;DHT22;22913;51.910;8.374;2022-09-29T10:08:54;13.60;99.90
37002;DHT22;22913;51.910;8.374;2022-09-29T10:11:43;13.80;99.90
37002;DHT22;22913;51.910;8.374;2022-09-29T10:14:29;13.90;99.90
37002;DHT22;22913;51.910;8.374;2022-09-29T10:17:17;14.10;99.90
37002;DHT22;22913;51.910;8.374;2022-09-29T10:20:04;14.30;99.90
37002;DHT22;22913;51.910;8.374;2022-09-29T10:22:50;14.60;99.90
37002;DHT22;22913;51.910;8.374;2022-09-29T10:25:37;14.80;99.90
37002;DHT22;22913;51.910;8.374;2022-09-29T10:28:25;15.00;99.90
37002;DHT22;22913;51.910;8.374;2022-09-29T10:31:18;15.10;99.90
37002;DHT22;22913;51.910;8.374;2022-09-29T10:34:15;15.20;99.90
37002;DHT22;22913;51.910;8.374;2022-09-29T10:37:03;15.60;99.90
37002;DHT22;22913;51.910;8.374;2022-09-29T10:39:49;15.80;99.90
37002;DHT22;22913;51.910;8.374;2022-09-29T10:42:37;16.10;99.90
37002;DHT22;22913;51.910;8.374;2022-09-29T10:45:25;16.40;99.90
37002;DHT22;22913;51.910;8.374;2022-09-29T10:48:13;16.70;99.90
37002;DHT22;22913;51.910;8.374;2022-09-29T10:51:00;17.00;99.90
37002;DHT22;22913;51.910;8.374;2022-09-29T10:53:46;17.20;99.90
37002;DHT22;22913;51.910;8.374;2022-09-29T10:56:32;17.30;99.90
37002;DHT22;22913;51.910;8.374;2022-09-29T10:59:21;17.60;99.90
37002;DHT22;22913;51.910;8.374;2022-09-29T11:02:19;17.70;99.90
37002;DHT22;22913;51.910;8.374;2022-09-29T11:05:16;17.70;99.90
37002;DHT22;22913;51.910;8.374;2022-09-29T11:08:02;17.50;99.90
37002;DHT22;22913;51.910;8.374;2022-09-29T11:10:47;17.40;99.90
37002;DHT22;22913;51.910;8.374;2022-09-29T11:13:36;17.40;99.90
37002;DHT22;22913;51.910;8.374;2022-09-29T11:16:27;17.40;99.90
37002;DHT22;22913;51.910;8.374;2022-09-29T11:19:14;17.50;99.90
37002;DHT22;22913;51.910;8.374;2022-09-29T11:22:20;18.00;99.90
37002;DHT22;22913;51.910;8.374;2022-09-29T11:25:20;18.20;99.90
37002;DHT22;22913;51.910;8.374;2022-09-29T11:28:30;18.80;99.90
37002;DHT22;22913;51.910;8.374;2022-09-29T11:31:35;19.50;99.90
37002;DHT22;22913;51.910;8.374;2022-09-29T11:34:47;20.00;99.90
37002;DHT22;22913;51.910;8.374;2022-09-29T11:37:50;20.40;99.90
37002;DHT22;22913;51.910;8.374;2022-09-29T11:40:52;20.10;99.90
37002;DHT22;22913;51.910;8.374;2022-09-29T11:43:46;19.60;99.90
37002;DHT22;22913;51.910;8.374;2022-09-29T11:46:49;19.20;99.90
37002;DHT22;22913;51.910;8.374;2022-09-29T11:50:02;18.80;99.90
37002;DHT22;22913;51.910;8.374;2022-09-29T11:53:02;18.40;99.90
37002;DHT22;22913;51.910;8.374;2022-09-29T11:55:58;18.20;99.90
37002;DHT22;22913;51.910;8.374;2022-09-29T11:58:55;18.40;99.90
37002;DHT22;22913;51.910;8.374;2022-09-29T12:01:56;19.30;99.90
37002;DHT22;22913;51.910;8.374;2022-09-29T12:04:57;20.30;99.90
37002;DHT22;22913;51.910;8.374;2022-09-29T12:07:56;20.90;99.90
37002;DHT22;22913;51.910;8.374;2022-09-29T12:10:50;21.00;99.90
37002;DHT22;22913;51.910;8.374;2022-09-29T12:13:43;20.80;99.90
37002;DHT22;22913;51.910;8.374;2022-09-29T12:16:37;20.70;99.90
37002;DHT22;22913;51.910;8.374;2022-09-29T12:19:27;21.10;99.90
37002;DHT22;22913;51.910;8.374;2022-09-29T12:22:16;21.40;99.90
37002;DHT22;22913;51.910;8.374;2022-09-29T12:25:03;22.00;99.90
37002;DHT22;22913;51.910;8.374;2022-09-29T12:27:52;22.20;99.90
37002;DHT22;22913;51.910;8.374;2022-09-29T12:30:44;22.10;99.90
37002;DHT22;22913;51.910;8.374;2022-09-29T12:33:35;21.70;99.90
37002;DHT22;22913;51.910;8.374;2022-09-29T12:36:32;21.00;99.90
37002;DHT22;22913;51.910;8.374;2022-09-29T12:39:40;20.40;99.90
37002;DHT22;22913;51.910;8.374;2022-09-29T12:42:40;19.80;99.90
37002;DHT22;22913;51.910;8.374;2022-09-29T12:45:34;19.70;99.90
37002;DHT22;22913;51.910;8.374;2022-09-29T12:48:31;19.70;99.90
37002;DHT22;22913;51.910;8.374;2022-09-29T12:51:24;19.50;99.90
37002;DHT22;22913;51.910;8.374;2022-09-29T12:54:17;19.30;99.90
37002;DHT22;22913;51.910;8.374;2022-09-29T12:57:08;18.90;99.90
37002;DHT22;22913;51.910;8.374;2022-09-29T13:00:00;19.30;99.90
37002;DHT22;22913;51.910;8.374;2022-09-29T13:06:13;21.60;99.90
37002;DHT22;22913;51.910;8.374;2022-09-29T13:09:26;23.10;99.90
37002;DHT22;22913;51.910;8.374;2022-09-29T13:12:35;24.10;99.90
37002;DHT22;22913;51.910;8.374;2022-09-29T13:15:44;25.10;99.90
37002;DHT22;22913;51.910;8.374;2022-09-29T13:18:47;25.90;99.90
37002;DHT22;22913;51.910;8.374;2022-09-29T13:21:42;26.20;99.90
37002;DHT22;22913;51.910;8.374;2022-09-29T13:24:36;26.70;99.10
37002;DHT22;22913;51.910;8.374;2022-09-29T13:27:28;27.20;98.80
37002;DHT22;22913;51.910;8.374;2022-09-29T13:30:18;27.80;97.50
37002;DHT22;22913;51.910;8.374;2022-09-29T13:33:09;28.10;94.90
37002;DHT22;22913;51.910;8.374;2022-09-29T13:35:55;28.20;94.90
37002;DHT22;22913;51.910;8.374;2022-09-29T13:38:46;28.40;93.60
37002;DHT22;22913;51.910;8.374;2022-09-29T13:41:37;28.70;93.00
37002;DHT22;22913;51.910;8.374;2022-09-29T13:44:25;28.80;91.70
37002;DHT22;22913;51.910;8.374;2022-09-29T13:47:30;28.80;91.00
37002;DHT22;22913;51.910;8.374;2022-09-29T13:50:39;27.70;90.50
37002;DHT22;22913;51.910;8.374;2022-09-29T13:53:34;27.20;90.80
37002;DHT22;22913;51.910;8.374;2022-09-29T13:56:21;26.90;91.60
37002;DHT22;22913;51.910;8.374;2022-09-29T13:59:14;26.20;91.70
37002;DHT22;22913;51.910;8.374;2022-09-29T14:02:00;25.50;92.50
37002;DHT22;22913;51.910;8.374;2022-09-29T14:04:51;25.10;92.70
37002;DHT22;22913;51.910;8.374;2022-09-29T14:07:40;25.30;92.40
37002;DHT22;22913;51.910;8.374;2022-09-29T14:10:35;25.90;91.80
37002;DHT22;22913;51.910;8.374;2022-09-29T14:13:26;25.60;91.30
37002;DHT22;22913;51.910;8.374;2022-09-29T14:19:45;24.30;91.80
37002;DHT22;22913;51.910;8.374;2022-09-29T14:22:52;23.90;92.10
37002;DHT22;22913;51.910;8.374;2022-09-29T14:25:50;23.90;92.60
37002;DHT22;22913;51.910;8.374;2022-09-29T14:28:39;24.60;92.40
37002;DHT22;22913;51.910;8.374;2022-09-29T14:31:29;25.00;90.40
37002;DHT22;22913;51.910;8.374;2022-09-29T14:34:16;25.40;90.20
37002;DHT22;22913;51.910;8.374;2022-09-29T14:37:03;26.00;89.70
37002;DHT22;22913;51.910;8.374;2022-09-29T14:39:50;26.70;87.80
37002;DHT22;22913;51.910;8.374;2022-09-29T14:43:04;26.40;88.00
37002;DHT22;22913;51.910;8.374;2022-09-29T14:46:22;25.70;90.00
37002;DHT22;22913;51.910;8.374;2022-09-29T14:53:29;26.60;86.90
37002;DHT22;22913;51.910;8.374;2022-09-29T14:56:31;27.30;86.10
37002;DHT22;22913;51.910;8.374;2022-09-29T14:59:31;27.40;84.00
37002;DHT22;22913;51.910;8.374;2022-09-29T15:02:23;28.20;81.90
37002;DHT22;22913;51.910;8.374;2022-09-29T15:05:20;28.20;80.80
37002;DHT22;22913;51.910;8.374;2022-09-29T15:08:25;28.30;81.50
37002;DHT22;22913;51.910;8.374;2022-09-29T15:11:26;28.60;78.50
37002;DHT22;22913;51.910;8.374;2022-09-29T15:14:22;27.80;77.80
37002;DHT22;22913;51.910;8.374;2022-09-29T15:17:16;26.90;79.70
37002;DHT22;22913;51.910;8.374;2022-09-29T15:20:07;26.50;82.10
37002;DHT22;22913;51.910;8.374;2022-09-29T15:26:12;27.50;82.50
37002;DHT22;22913;51.910;8.374;2022-09-29T15:28:58;28.00;81.80
37002;DHT22;22913;51.910;8.374;2022-09-29T15:31:46;27.90;82.00
37002;DHT22;22913;51.910;8.374;2022-09-29T15:34:37;28.30;81.50
37002;DHT22;22913;51.910;8.374;2022-09-29T15:37:23;27.50;79.70
37002;DHT22;22913;51.910;8.374;2022-09-29T15:40:13;27.40;81.20
37002;DHT22;22913;51.910;8.374;2022-09-29T15:43:01;26.70;82.90
37002;DHT22;22913;51.910;8.374;2022-09-29T15:45:52;26.70;83.60
37002;DHT22;22913;51.910;8.374;2022-09-29T15:48:39;26.80;82.90
37002;DHT22;22913;51.910;8.374;2022-09-29T15:51:24;26.80;83.20
37002;DHT22;22913;51.910;8.374;2022-09-29T15:54:12;26.60;84.30
37002;DHT22;22913;51.910;8.374;2022-09-29T15:56:58;26.10;84.40
37002;DHT22;22913;51.910;8.374;2022-09-29T16:00:02;25.60;85.50
37002;DHT22;22913;51.910;8.374;2022-09-29T16:02:50;24.60;87.70
37002;DHT22;22913;51.910;8.374;2022-09-29T16:05:39;24.00;89.40
37002;DHT22;22913;51.910;8.374;2022-09-29T16:08:27;23.50;90.40
37002;DHT22;22913;51.910;8.374;2022-09-29T16:11:19;23.20;90.80
37002;DHT22;22913;51.910;8.374;2022-09-29T16:14:08;22.70;91.70
37002;DHT22;22913;51.910;8.374;2022-09-29T16:16:56;22.30;92.60
37002;DHT22;22913;51.910;8.374;2022-09-29T16:19:44;22.00;93.10
37002;DHT22;22913;51.910;8.374;2022-09-29T16:22:31;21.60;93.90
37002;DHT22;22913;51.910;8.374;2022-09-29T16:25:22;21.40;94.50
37002;DHT22;22913;51.910;8.374;2022-09-29T16:28:23;21.20;94.90
37002;DHT22;22913;51.910;8.374;2022-09-29T16:31:17;20.80;95.90
37002;DHT22;22913;51.910;8.374;2022-09-29T16:34:22;20.50;96.80
37002;DHT22;22913;51.910;8.374;2022-09-29T16:37:14;20.30;97.60
37002;DHT22;22913;51.910;8.374;2022-09-29T16:40:00;20.20;97.90
37002;DHT22;22913;51.910;8.374;2022-09-29T16:42:50;20.00;98.80
37002;DHT22;22913;51.910;8.374;2022-09-29T16:45:40;19.70;99.80
37002;DHT22;22913;51.910;8.374;2022-09-29T16:48:28;19.40;99.90
37002;DHT22;22913;51.910;8.374;2022-09-29T16:51:18;19.00;99.90
37002;DHT22;22913;51.910;8.374;2022-09-29T16:54:04;18.70;99.90
37002;DHT22;22913;51.910;8.374;2022-09-29T16:57:24;18.40;99.90
37002;DHT22;22913;51.910;8.374;2022-09-29T17:00:11;18.20;99.90
37002;DHT22;22913;51.910;8.374;2022-09-29T17:02:57;17.90;99.90
37002;DHT22;22913;51.910;8.374;2022-09-29T17:05:46;17.60;99.90
37002;DHT22;22913;51.910;8.374;2022-09-29T17:08:33;17.40;99.90
37002;DHT22;22913;51.910;8.374;2022-09-29T17:11:19;17.10;99.90
37002;DHT22;22913;51.910;8.374;2022-09-29T17:14:08;16.90;99.90
37002;DHT22;22913;51.910;8.374;2022-09-29T17:16:54;16.80;99.90
37002;DHT22;22913;51.910;8.374;2022-09-29T17:19:39;16.60;99.90
37002;DHT22;22913;51.910;8.374;2022-09-29T17:22:28;16.40;99.90
37002;DHT22;22913;51.910;8.374;2022-09-29T17:25:15;16.30;99.90
37002;DHT22;22913;51.910;8.374;2022-09-29T17:28:01;16.10;99.90
37002;DHT22;22913;51.910;8.374;2022-09-29T17:30:55;15.90;99.90
37002;DHT22;22913;51.910;8.374;2022-09-29T17:33:40;15.70;99.90
37002;DHT22;22913;51.910;8.374;2022-09-29T17:36:26;15.50;99.90
37002;DHT22;22913;51.910;8.374;2022-09-29T17:39:12;15.40;99.90
37002;DHT22;22913;51.910;8.374;2022-09-29T17:42:01;15.20;99.90
37002;DHT22;22913;51.910;8.374;2022-09-29T17:44:47;15.10;99.90
37002;DHT22;22913;51.910;8.374;2022-09-29T17:47:33;14.90;99.90
37002;DHT22;22913;51.910;8.374;2022-09-29T17:50:23;14.70;99.90
37002;DHT22;22913;51.910;8.374;2022-09-29T17:53:10;14.40;99.90
37002;DHT22;22913;51.910;8.374;2022-09-29T17:55:58;14.30;99.90
37002;DHT22;22913;51.910;8.374;2022-09-29T17:58:48;14.10;99.90
37002;DHT22;22913;51.910;8.374;2022-09-29T18:01:34;13.90;99.90
37002;DHT22;22913;51.910;8.374;2022-09-29T18:04:20;13.80;99.90
37002;DHT22;22913;51.910;8.374;2022-09-29T18:07:10;13.70;99.90
37002;DHT22;22913;51.910;8.374;2022-09-29T18:09:55;13.70;99.90
37002;DHT22;22913;51.910;8.374;2022-09-29T18:12:41;13.60;99.90
37002;DHT22;22913;51.910;8.374;2022-09-29T18:15:28;13.50;99.90
37002;DHT22;22913;51.910;8.374;2022-09-29T18:18:15;13.50;99.90
37002;DHT22;22913;51.910;8.374;2022-09-29T18:21:02;13.40;99.90